Terminal Aerodrome Forecast
Issued by NWS Quad Cities IA IL

Home | Current Version | Previous Version | Text Only | Print | Product List | Glossary On
Versions: 1 2 3 4 5 6 7 8 9 10 11 12 13 14 15 16 17 18 19 20 21 22 23 24
000
FTUS43 KDVN 241600 AAD
TAFMLI
TAF AMD
KMLI 241621Z 2416/2512 19008KT 3SM BR OVC005
     FM241800 21008KT 4SM BR OVC007
     FM250100 21005KT 4SM BR OVC012=

USA.gov is the U.S. government's official web portal to all federal, state and local government web resources and services.